地図

経路データ

SID SEASON NUMBER BASIN SUBBASIN NAME ISO_TIME NATURE LAT LON WMO_WIND WMO_PRES WMO_AGENCY TRACK_TYPE DIST2LAND LANDFALL IFLAG USA_AGENCY USA_ATCF_ID USA_LAT USA_LON USA_RECORD USA_STATUS USA_WIND USA_PRES USA_SSHS USA_R34_NE USA_R34_SE USA_R34_SW USA_R34_NW USA_R50_NE USA_R50_SE USA_R50_SW USA_R50_NW USA_R64_NE USA_R64_SE USA_R64_SW USA_R64_NW USA_POCI USA_ROCI USA_RMW USA_EYE TOKYO_LAT TOKYO_LON TOKYO_GRADE TOKYO_WIND TOKYO_PRES TOKYO_R50_DIR TOKYO_R50_LONG TOKYO_R50_SHORT TOKYO_R30_DIR TOKYO_R30_LONG TOKYO_R30_SHORT TOKYO_LAND CMA_LAT CMA_LON CMA_CAT CMA_WIND CMA_PRES HKO_LAT HKO_LON HKO_CAT HKO_WIND HKO_PRES NEWDELHI_LAT NEWDELHI_LON NEWDELHI_GRADE NEWDELHI_WIND NEWDELHI_PRES NEWDELHI_CI NEWDELHI_DP NEWDELHI_POCI REUNION_LAT REUNION_LON REUNION_TYPE REUNION_WIND REUNION_PRES REUNION_TNUM REUNION_CI REUNION_RMW REUNION_R34_NE REUNION_R34_SE REUNION_R34_SW REUNION_R34_NW REUNION_R50_NE REUNION_R50_SE REUNION_R50_SW REUNION_R50_NW REUNION_R64_NE REUNION_R64_SE REUNION_R64_SW REUNION_R64_NW BOM_LAT BOM_LON BOM_TYPE BOM_WIND BOM_PRES BOM_TNUM BOM_CI BOM_RMW BOM_R34_NE BOM_R34_SE BOM_R34_SW BOM_R34_NW BOM_R50_NE BOM_R50_SE BOM_R50_SW BOM_R50_NW BOM_R64_NE BOM_R64_SE BOM_R64_SW BOM_R64_NW BOM_ROCI BOM_POCI BOM_EYE BOM_POS_METHOD BOM_PRES_METHOD NADI_LAT NADI_LON NADI_CAT NADI_WIND NADI_PRES WELLINGTON_LAT WELLINGTON_LON WELLINGTON_WIND WELLINGTON_PRES DS824_LAT DS824_LON DS824_STAGE DS824_WIND DS824_PRES TD9636_LAT TD9636_LON TD9636_STAGE TD9636_WIND TD9636_PRES TD9635_LAT TD9635_LON TD9635_WIND TD9635_PRES TD9635_ROCI NEUMANN_LAT NEUMANN_LON NEUMANN_CLASS NEUMANN_WIND NEUMANN_PRES MLC_LAT MLC_LON MLC_CLASS MLC_WIND MLC_PRES USA_GUST BOM_GUST BOM_GUST_PER REUNION_GUST REUNION_GUST_PER USA_SEAHGT USA_SEARAD_NE USA_SEARAD_SE USA_SEARAD_SW USA_SEARAD_NW STORM_SPEED STORM_DIR
1936220N08143 1936 33 WP MM NOT_NAMED 1936-08-07 10:00:00 NR 7.50000 143.000 main 1146 1132 __________O___ -1 7.50000 143.000 7 9 278
1936220N08143 1936 33 WP MM NOT_NAMED 1936-08-07 12:00:00 NR 7.54074 142.717 main 1132 1126 __________P___ -1 7.54074 142.717 7 9 279
1936220N08143 1936 33 WP MM NOT_NAMED 1936-08-07 15:00:00 NR 7.61146 142.274 main 1126 1116 __________P___ -1 7.61146 142.274 7 9 280
1936220N08143 1936 33 WP MM NOT_NAMED 1936-08-07 18:00:00 NR 7.70723 141.782 main 1116 1104 __________P___ -1 7.70723 141.782 7 11 282
1936220N08143 1936 33 WP MM NOT_NAMED 1936-08-07 21:00:00 NR 7.84317 141.212 main 1104 1109 __________P___ -1 7.84317 141.212 7 12 284
1936220N08143 1936 33 WP MM NOT_NAMED 1936-08-07 22:00:00 NR 7.90000 141.000 main 1109 1105 __________O___ -1 7.90000 141.000 7 14 286
1936220N08143 1936 33 WP MM NOT_NAMED 1936-08-08 00:00:00 NR 8.03255 140.538 main 1105 1101 __________P___ -1 8.03255 140.538 7 15 287
1936220N08143 1936 33 WP MM NOT_NAMED 1936-08-08 03:00:00 NR 8.26910 139.769 main 1107 1093 __________P___ -1 8.26910 139.769 7 17 288
1936220N08143 1936 33 WP MM NOT_NAMED 1936-08-08 06:00:00 NR 8.53421 138.940 main 1093 1093 __________P___ -1 8.53421 138.940 7 18 288
1936220N08143 1936 33 WP MM NOT_NAMED 1936-08-08 09:00:00 NR 8.80927 138.085 main 1100 1097 __________P___ -1 8.80927 138.085 7 18 288
1936220N08143 1936 33 WP MM NOT_NAMED 1936-08-08 10:00:00 NR 8.90000 137.800 main 1103 1100 __________O___ -1 8.90000 137.800 7 18 288
1936220N08143 1936 33 WP MM NOT_NAMED 1936-08-08 12:00:00 NR 9.07975 137.235 main 1112 1093 __________P___ -1 9.07975 137.235 7 18 288
1936220N08143 1936 33 WP MM NOT_NAMED 1936-08-08 15:00:00 NR 9.34981 136.381 main 1093 1002 __________P___ -1 9.34981 136.381 7 18 288
1936220N08143 1936 33 WP MM NOT_NAMED 1936-08-08 18:00:00 NR 9.60628 135.543 main 1002 921 __________P___ -1 9.60628 135.543 7 17 287
1936220N08143 1936 33 WP MM NOT_NAMED 1936-08-08 21:00:00 NR 9.83346 134.750 main 921 903 __________P___ -1 9.83346 134.750 7 16 286
1936220N08143 1936 33 WP MM NOT_NAMED 1936-08-08 22:00:00 NR 9.90000 134.500 main 903 853 __________O___ -1 9.90000 134.500 7 15 283
1936220N08143 1936 33 WP MM NOT_NAMED 1936-08-09 00:00:00 NR 9.99294 134.027 main 853 792 __________P___ -1 9.99294 134.027 7 14 280
1936220N08143 1936 33 WP MM NOT_NAMED 1936-08-09 03:00:00 NR 10.1009 133.367 main 792 730 __________P___ -1 10.1009 133.367 7 13 280
1936220N08143 1936 33 WP MM NOT_NAMED 1936-08-09 06:00:00 NR 10.2045 132.757 main 730 668 __________P___ -1 10.2045 132.757 7 12 282
1936220N08143 1936 33 WP MM NOT_NAMED 1936-08-09 09:00:00 NR 10.3408 132.185 main 668 650 __________P___ -1 10.3408 132.185 7 12 285
1936220N08143 1936 33 WP MM NOT_NAMED 1936-08-09 10:00:00 NR 10.4000 132.000 main 650 609 __________O___ -1 10.4000 132.000 7 12 289
1936220N08143 1936 33 WP MM NOT_NAMED 1936-08-09 12:00:00 NR 10.5284 131.614 main 609 562 __________P___ -1 10.5284 131.614 7 12 292
1936220N08143 1936 33 WP MM NOT_NAMED 1936-08-09 15:00:00 NR 10.7646 131.059 main 566 513 __________P___ -1 10.7646 131.059 7 12 297
1936220N08143 1936 33 WP MM NOT_NAMED 1936-08-09 18:00:00 NR 11.0670 130.538 main 513 471 __________P___ -1 11.0670 130.538 7 12 305
1936220N08143 1936 33 WP MM NOT_NAMED 1936-08-09 21:00:00 NR 11.4511 130.053 main 472 452 __________P___ -1 11.4511 130.053 7 12 310
1936220N08143 1936 33 WP MM NOT_NAMED 1936-08-09 22:00:00 NR 11.6000 129.900 main 452 426 __________O___ -1 11.6000 129.900 7 13 318
1936220N08143 1936 33 WP MM NOT_NAMED 1936-08-10 00:00:00 NR 11.9311 129.612 main 426 403 __________P___ -1 11.9311 129.612 7 14 323
1936220N08143 1936 33 WP MM NOT_NAMED 1936-08-10 03:00:00 NR 12.5037 129.213 main 403 372 __________P___ -1 12.5037 129.213 7 14 328
1936220N08143 1936 33 WP MM NOT_NAMED 1936-08-10 06:00:00 NR 13.1342 128.829 main 372 361 __________P___ -1 13.1342 128.829 7 15 329
1936220N08143 1936 33 WP MM NOT_NAMED 1936-08-10 09:00:00 NR 13.7850 128.437 main 361 358 __________P___ -1 13.7850 128.437 7 15 329
1936220N08143 1936 33 WP MM NOT_NAMED 1936-08-10 10:00:00 NR 14.0000 128.300 main 364 359 __________O___ -1 14.0000 128.300 7 16 326
1936220N08143 1936 33 WP MM NOT_NAMED 1936-08-10 12:00:00 NR 14.4315 127.988 main 365 355 __________P___ -1 14.4315 127.988 7 16 324
1936220N08143 1936 33 WP MM NOT_NAMED 1936-08-10 15:00:00 NR 15.0796 127.500 main 359 341 __________P___ -1 15.0796 127.500 7 16 323
1936220N08143 1936 33 WP MM NOT_NAMED 1936-08-10 18:00:00 NR 15.6950 127.011 main 344 341 __________P___ -1 15.6950 127.011 7 15 322
1936220N08143 1936 33 WP MM NOT_NAMED 1936-08-10 21:00:00 NR 16.2403 126.546 main 341 342 __________P___ -1 16.2403 126.546 7 14 320
1936220N08143 1936 33 WP MM NOT_NAMED 1936-08-10 22:00:00 NR 16.4000 126.400 main 350 350 __________O___ -1 16.4000 126.400 3 12 318
1936220N08143 1936 33 WP MM NOT_NAMED 1936-08-11 00:00:00 NR 16.6654 126.142 main 358 350 __________P___ -1 16.6654 126.142 3 10 315
1936220N08143 1936 33 WP MM NOT_NAMED 1936-08-11 03:00:00 NR 16.9881 125.788 main 350 319 __________P___ -1 16.9881 125.788 3 9 312
1936220N08143 1936 33 WP MM NOT_NAMED 1936-08-11 06:00:00 NR 17.2565 125.454 main 320 281 __________P___ -1 17.2565 125.454 3 8 309
1936220N08143 1936 33 WP MM NOT_NAMED 1936-08-11 09:00:00 NR 17.5112 125.117 main 281 273 __________P___ -1 17.5112 125.117 3 8 308
1936220N08143 1936 33 WP MM NOT_NAMED 1936-08-11 10:00:00 NR 17.6000 125.000 main 273 250 __________O___ -1 17.6000 125.000 4 10 311
1936220N08143 1936 33 WP MM NOT_NAMED 1936-08-11 12:00:00 NR 17.8267 124.740 main 250 211 __________P___ -1 17.8267 124.740 4 10 312
1936220N08143 1936 33 WP MM NOT_NAMED 1936-08-11 15:00:00 NR 18.1734 124.336 main 211 169 __________P___ -1 18.1734 124.336 4 10 312
1936220N08143 1936 33 WP MM NOT_NAMED 1936-08-11 18:00:00 NR 18.5087 123.929 main 169 134 __________P___ -1 18.5087 123.929 4 10 310
1936220N08143 1936 33 WP MM NOT_NAMED 1936-08-11 21:00:00 NR 18.8105 123.529 main 134 128 __________P___ -1 18.8105 123.529 4 10 308
1936220N08143 1936 33 WP MM NOT_NAMED 1936-08-11 22:00:00 NR 18.9000 123.400 main 128 116 __________O___ -1 18.9000 123.400 4 8 304
1936220N08143 1936 33 WP MM NOT_NAMED 1936-08-12 00:00:00 NR 19.0506 123.160 main 122 103 __________P___ -1 19.0506 123.160 4 8 301
1936220N08143 1936 33 WP MM NOT_NAMED 1936-08-12 03:00:00 NR 19.2388 122.813 main 103 103 __________P___ -1 19.2388 122.813 4 7 298
1936220N08143 1936 33 WP MM NOT_NAMED 1936-08-12 06:00:00 NR 19.3987 122.471 main 113 112 __________P___ -1 19.3987 122.471 4 7 295
1936220N08143 1936 33 WP MM NOT_NAMED 1936-08-12 09:00:00 NR 19.5489 122.121 main 123 134 __________P___ -1 19.5489 122.121 4 7 294
1936220N08143 1936 33 WP MM NOT_NAMED 1936-08-12 10:00:00 NR 19.6000 122.000 main 134 133 __________O___ -1 19.6000 122.000 4 7 300
1936220N08143 1936 33 WP MM NOT_NAMED 1936-08-12 12:00:00 NR 19.7342 121.781 main 140 140 __________P___ -1 19.7342 121.781 4 7 303
1936220N08143 1936 33 WP MM NOT_NAMED 1936-08-12 15:00:00 NR 19.9361 121.442 main 154 154 __________P___ -1 19.9361 121.442 4 8 299
1936220N08143 1936 33 WP MM NOT_NAMED 1936-08-12 18:00:00 NR 20.1200 121.055 main 169 168 __________P___ -1 20.1200 121.055 4 9 292
1936220N08143 1936 33 WP MM NOT_NAMED 1936-08-12 21:00:00 NR 20.2644 120.583 main 179 179 __________P___ -1 20.2644 120.583 4 10 286
1936220N08143 1936 33 WP MM NOT_NAMED 1936-08-12 22:00:00 NR 20.3000 120.400 main 181 181 __________O___ -1 20.3000 120.400 4 12 277
1936220N08143 1936 33 WP MM NOT_NAMED 1936-08-13 00:00:00 NR 20.3381 119.971 main 193 197 __________P___ -1 20.3381 119.971 4 13 273
1936220N08143 1936 33 WP MM NOT_NAMED 1936-08-13 03:00:00 NR 20.3506 119.240 main 228 228 __________P___ -1 20.3506 119.240 4 14 270
1936220N08143 1936 33 WP MM NOT_NAMED 1936-08-13 06:00:00 NR 20.3314 118.451 main 289 298 __________P___ -1 20.3314 118.451 4 15 268
1936220N08143 1936 33 WP MM NOT_NAMED 1936-08-13 09:00:00 NR 20.3055 117.657 main 316 305 __________P___ -1 20.3055 117.657 4 15 268
1936220N08143 1936 33 WP MM NOT_NAMED 1936-08-13 10:00:00 NR 20.3000 117.400 main 305 291 __________O___ -1 20.3000 117.400 4 13 271
1936220N08143 1936 33 WP MM NOT_NAMED 1936-08-13 12:00:00 NR 20.3148 116.949 main 291 273 __________P___ -1 20.3148 116.949 4 12 272
1936220N08143 1936 33 WP MM NOT_NAMED 1936-08-13 15:00:00 NR 20.3444 116.291 main 273 245 __________P___ -1 20.3444 116.291 4 12 273
1936220N08143 1936 33 WP MM NOT_NAMED 1936-08-13 18:00:00 NR 20.3746 115.632 main 245 221 __________P___ -1 20.3746 115.632 4 13 272
1936220N08143 1936 33 WP MM NOT_NAMED 1936-08-13 21:00:00 NR 20.3963 114.942 main 221 216 __________P___ -1 20.3963 114.942 4 13 272
1936220N08143 1936 33 WP MM NOT_NAMED 1936-08-13 22:00:00 NR 20.4000 114.700 main 216 208 __________O___ -1 20.4000 114.700 4 14 269
1936220N08143 1936 33 WP MM NOT_NAMED 1936-08-14 00:00:00 NR 20.3868 114.181 main 208 172 __________P___ -1 20.3868 114.181 4 15 268
1936220N08143 1936 33 WP MM NOT_NAMED 1936-08-14 03:00:00 NR 20.3543 113.365 main 172 157 __________P___ -1 20.3543 113.365 4 16 268
1936220N08143 1936 33 WP MM NOT_NAMED 1936-08-14 06:00:00 NR 20.3203 112.524 main 157 94 __________P___ -1 20.3203 112.524 4 16 268
1936220N08143 1936 33 WP MM NOT_NAMED 1936-08-14 09:00:00 NR 20.3006 111.679 main 94 68 __________P___ -1 20.3006 111.679 4 16 269
1936220N08143 1936 33 WP MM NOT_NAMED 1936-08-14 10:00:00 NR 20.3000 111.400 main 68 30 __________O___ -1 20.3000 111.400 4 16 271
1936220N08143 1936 33 WP MM NOT_NAMED 1936-08-14 12:00:00 NR 20.3102 110.850 main 30 0 __________P___ -1 20.3102 110.850 4 15 272
1936220N08143 1936 33 WP MM NOT_NAMED 1936-08-14 15:00:00 NR 20.3492 110.042 main 0 0 __________P___ -1 20.3492 110.042 4 15 274
1936220N08143 1936 33 WP MM NOT_NAMED 1936-08-14 18:00:00 NR 20.4080 109.248 main 63 63 __________P___ -1 20.4080 109.248 4 15 275
1936220N08143 1936 33 WP MM NOT_NAMED 1936-08-14 21:00:00 NR 20.4766 108.462 main 114 100 __________P___ -1 20.4766 108.462 4 15 275
1936220N08143 1936 33 WP MM NOT_NAMED 1936-08-14 22:00:00 NR 20.5000 108.200 main 100 __________O___ -1 20.5000 108.200 4 15 275

デジタル台風データ・検索

IBTrACS Databaseについて

本データベースは、米国NOAAが公開する1842年以降の世界の熱帯低気圧のベストトラックデータアーカイブInternational Best Track Archive for Climate Stewardship (IBTrACS)を、ウェブで閲覧しやすい形式に変換したものです。

最終更新日:2021-10-21